createdAt,value
2019-01-31T00:02:28.360Z,-3.50
2019-01-31T00:05:16.839Z,-3.70
2019-01-31T00:08:14.337Z,-3.90
2019-01-31T00:11:26.369Z,-3.80
2019-01-31T00:14:35.580Z,-3.90
2019-01-31T00:17:33.150Z,-4.00
2019-01-31T00:20:31.092Z,-4.20
2019-01-31T00:23:41.756Z,-4.30
2019-01-31T00:26:37.528Z,-4.40
2019-01-31T00:29:38.860Z,-4.50
2019-01-31T00:32:52.172Z,-4.60
2019-01-31T00:35:54.118Z,-4.70
2019-01-31T00:39:17.611Z,-4.60
2019-01-31T00:42:08.459Z,-4.60
2019-01-31T00:45:01.652Z,-4.70
2019-01-31T00:47:54.935Z,-4.80
2019-01-31T00:50:51.420Z,-4.70
2019-01-31T00:53:46.095Z,-4.90
2019-01-31T00:56:51.073Z,-4.90
2019-01-31T01:00:09.451Z,-5.00
2019-01-31T01:03:08.215Z,-4.80
2019-01-31T01:06:30.485Z,-4.30
2019-01-31T01:09:19.444Z,-4.10
2019-01-31T01:12:31.347Z,-3.90
2019-01-31T01:15:38.144Z,-3.80
2019-01-31T01:18:29.798Z,-3.90
2019-01-31T01:21:05.368Z,-4.10
2019-01-31T01:23:46.617Z,-4.20
2019-01-31T01:26:35.568Z,-4.10
2019-01-31T01:29:51.200Z,-4.10
2019-01-31T01:35:39.217Z,-3.90
2019-01-31T01:38:42.748Z,-3.80
2019-01-31T01:41:59.204Z,-3.70
2019-01-31T01:45:02.196Z,-3.50
2019-01-31T01:47:45.359Z,-3.40
2019-01-31T01:50:26.910Z,-3.20
2019-01-31T01:53:19.377Z,-3.20
2019-01-31T01:56:08.131Z,-3.20
2019-01-31T01:59:05.748Z,-3.20
2019-01-31T02:01:45.101Z,-3.20
2019-01-31T02:04:43.134Z,-3.30
2019-01-31T02:07:38.183Z,-3.40
2019-01-31T02:10:43.215Z,-3.40
2019-01-31T02:13:54.242Z,-3.60
2019-01-31T02:16:51.540Z,-3.80
2019-01-31T02:20:23.628Z,-4.00
2019-01-31T02:23:17.028Z,-4.20
2019-01-31T02:26:35.437Z,-4.40
2019-01-31T02:29:31.675Z,-4.50
2019-01-31T02:33:03.528Z,-4.70
2019-01-31T02:35:52.034Z,-4.80
2019-01-31T02:39:02.669Z,-4.70
2019-01-31T02:42:09.779Z,-4.70
2019-01-31T02:45:26.076Z,-4.60
2019-01-31T02:48:23.456Z,-4.60
2019-01-31T02:51:22.228Z,-4.80
2019-01-31T02:54:27.702Z,-4.70
2019-01-31T02:57:11.223Z,-4.80
2019-01-31T03:00:11.545Z,-4.90
2019-01-31T03:03:03.909Z,-4.90
2019-01-31T03:06:04.604Z,-4.80
2019-01-31T03:08:43.043Z,-4.90
2019-01-31T03:11:30.911Z,-5.10
2019-01-31T03:14:59.788Z,-5.20
2019-01-31T03:17:51.256Z,-5.30
2019-01-31T03:21:19.784Z,-5.30
2019-01-31T03:24:33.654Z,-5.10
2019-01-31T03:27:45.346Z,-5.00
2019-01-31T03:30:53.139Z,-4.90
2019-01-31T03:33:39.298Z,-4.60
2019-01-31T03:36:22.407Z,-4.40
2019-01-31T03:39:22.564Z,-4.30
2019-01-31T03:42:11.450Z,-4.00
2019-01-31T03:44:49.464Z,-3.60
2019-01-31T03:48:02.155Z,-3.40
2019-01-31T03:50:42.447Z,-3.30
2019-01-31T03:53:56.289Z,-3.10
2019-01-31T03:56:59.720Z,-3.10
2019-01-31T03:59:56.810Z,-3.40
2019-01-31T04:02:56.439Z,-3.90
2019-01-31T04:06:11.641Z,-4.20
2019-01-31T04:08:41.131Z,-4.60
2019-01-31T04:11:10.702Z,-4.50
2019-01-31T04:13:40.575Z,-4.60
2019-01-31T04:16:10.056Z,-4.80
2019-01-31T04:18:39.611Z,-4.90
2019-01-31T04:21:09.173Z,-4.50
2019-01-31T04:23:38.669Z,-3.60
2019-01-31T04:26:10.292Z,-3.30
2019-01-31T04:28:39.654Z,-3.00
2019-01-31T04:31:09.003Z,-2.90
2019-01-31T04:33:38.292Z,-3.10
2019-01-31T04:36:07.633Z,-3.40
2019-01-31T04:38:37.614Z,-3.70
2019-01-31T04:41:07.148Z,-4.00
2019-01-31T04:43:36.868Z,-4.30
2019-01-31T04:46:07.031Z,-4.50
2019-01-31T04:48:36.632Z,-4.80
2019-01-31T04:51:06.261Z,-4.80
2019-01-31T04:53:35.818Z,-4.90
2019-01-31T04:56:05.333Z,-4.90
2019-01-31T04:58:34.968Z,-4.70
2019-01-31T05:01:04.753Z,-4.60
2019-01-31T05:03:34.311Z,-4.50
2019-01-31T05:06:03.908Z,-4.40
2019-01-31T05:08:33.537Z,-4.50
2019-01-31T05:11:03.659Z,-4.60
2019-01-31T05:13:33.335Z,-4.60
2019-01-31T05:16:03.678Z,-4.70
2019-01-31T05:18:33.705Z,-4.70
2019-01-31T05:21:03.350Z,-4.80
2019-01-31T05:23:32.996Z,-4.70
2019-01-31T05:26:02.613Z,-4.70
2019-01-31T05:28:32.380Z,-4.80
2019-01-31T05:31:01.886Z,-4.90
2019-01-31T05:33:31.578Z,-4.80
2019-01-31T05:36:01.475Z,-4.80
2019-01-31T05:38:31.055Z,-4.80
2019-01-31T05:41:00.732Z,-4.20
2019-01-31T05:43:30.354Z,-3.90
2019-01-31T05:45:59.957Z,-3.50
2019-01-31T05:48:29.489Z,-3.80
2019-01-31T05:50:59.341Z,-4.00
2019-01-31T05:53:28.812Z,-4.00
2019-01-31T05:55:58.378Z,-4.10
2019-01-31T05:58:28.250Z,-4.10
2019-01-31T06:00:57.791Z,-4.00
2019-01-31T06:03:27.316Z,-3.90
2019-01-31T06:05:56.824Z,-3.80
2019-01-31T06:08:26.291Z,-3.80
2019-01-31T06:11:06.849Z,-3.70
2019-01-31T06:13:27.343Z,-3.60
2019-01-31T06:15:56.931Z,-3.50
2019-01-31T06:18:26.410Z,-3.50
2019-01-31T06:20:56.008Z,-3.40
2019-01-31T06:23:25.522Z,-3.30
2019-01-31T06:25:55.070Z,-3.20
2019-01-31T06:28:24.678Z,-3.20
2019-01-31T06:30:54.219Z,-3.20
2019-01-31T06:33:23.757Z,-3.30
2019-01-31T06:35:53.326Z,-3.20
2019-01-31T06:38:22.887Z,-3.20
2019-01-31T06:40:52.426Z,-3.20
2019-01-31T06:43:21.884Z,-3.20
2019-01-31T06:45:51.382Z,-3.30
2019-01-31T06:48:20.883Z,-3.30
2019-01-31T06:50:50.575Z,-3.20
2019-01-31T06:53:20.070Z,-3.20
2019-01-31T06:55:49.511Z,-3.10
2019-01-31T06:58:19.031Z,-3.00
2019-01-31T07:00:48.519Z,-3.00
2019-01-31T07:03:18.003Z,-2.90
2019-01-31T07:05:47.574Z,-2.90
2019-01-31T07:08:17.498Z,-2.80
2019-01-31T07:10:47.111Z,-2.70
2019-01-31T07:13:16.633Z,-2.40
2019-01-31T07:15:46.141Z,-2.30
2019-01-31T07:18:15.755Z,-2.40
2019-01-31T07:20:45.286Z,-2.40
2019-01-31T07:23:14.823Z,-2.40
2019-01-31T07:25:44.639Z,-2.40
2019-01-31T07:28:14.259Z,-2.30
2019-01-31T07:30:44.076Z,-2.30
2019-01-31T07:33:13.606Z,-2.20
2019-01-31T07:35:43.523Z,-2.10
2019-01-31T07:38:13.040Z,-2.20
2019-01-31T07:40:42.643Z,-2.30
2019-01-31T07:43:12.115Z,-2.20
2019-01-31T07:45:41.645Z,-2.10
2019-01-31T07:48:11.252Z,-2.00
2019-01-31T07:50:40.853Z,-2.00
2019-01-31T07:53:12.827Z,-1.80
2019-01-31T07:55:41.869Z,-1.70
2019-01-31T07:58:11.345Z,-1.50
2019-01-31T08:00:40.929Z,-1.40
2019-01-31T08:03:10.767Z,-1.30
2019-01-31T08:05:40.306Z,-1.20
2019-01-31T08:08:10.076Z,-1.20
2019-01-31T08:10:41.597Z,-1.20
2019-01-31T08:13:11.449Z,-1.30
2019-01-31T08:15:41.018Z,-1.30
2019-01-31T08:18:11.057Z,-1.20
2019-01-31T08:20:40.952Z,-1.20
2019-01-31T08:23:10.428Z,-1.10
2019-01-31T08:25:39.996Z,-1.00
2019-01-31T08:28:09.648Z,-0.90
2019-01-31T08:30:41.067Z,-0.80
2019-01-31T08:33:10.609Z,-0.80
2019-01-31T08:35:40.219Z,-0.60
2019-01-31T08:38:09.770Z,-0.50
2019-01-31T08:40:39.298Z,-0.40
2019-01-31T08:43:08.887Z,-0.40
2019-01-31T08:45:38.384Z,-0.20
2019-01-31T08:48:08.115Z,-0.10
2019-01-31T08:50:37.716Z,0.10
2019-01-31T08:53:07.267Z,0.20
2019-01-31T08:55:36.898Z,0.20
2019-01-31T08:58:06.571Z,0.10
2019-01-31T09:00:39.003Z,0.10
2019-01-31T09:03:08.667Z,0.00
2019-01-31T09:05:38.315Z,0.10
2019-01-31T09:08:07.949Z,0.10
2019-01-31T09:10:39.275Z,0.40
2019-01-31T09:13:10.772Z,0.60
2019-01-31T09:15:40.460Z,0.90
2019-01-31T09:18:10.011Z,1.00
2019-01-31T09:21:06.701Z,1.40
2019-01-31T09:24:20.498Z,1.80
2019-01-31T09:27:22.219Z,2.90
2019-01-31T09:30:26.880Z,4.40
2019-01-31T09:33:31.745Z,5.30
2019-01-31T09:36:38.157Z,5.30
2019-01-31T09:40:00.755Z,5.20
2019-01-31T09:42:58.083Z,6.40
2019-01-31T09:45:45.852Z,7.20
2019-01-31T09:48:40.354Z,5.60
2019-01-31T09:51:45.717Z,4.50
2019-01-31T09:54:40.250Z,4.70
2019-01-31T09:57:53.384Z,5.90
2019-01-31T10:00:55.886Z,6.30
2019-01-31T10:03:39.273Z,7.40
2019-01-31T10:06:48.833Z,9.90
2019-01-31T10:09:39.575Z,10.90
2019-01-31T10:12:23.606Z,10.30
2019-01-31T10:15:15.077Z,10.90
2019-01-31T10:18:24.601Z,9.90
2019-01-31T10:21:37.400Z,8.10
2019-01-31T10:24:32.465Z,6.10
2019-01-31T10:27:14.851Z,4.40
2019-01-31T10:30:18.957Z,3.30
2019-01-31T10:33:27.935Z,2.80
2019-01-31T10:36:19.924Z,3.00
2019-01-31T10:39:26.338Z,3.60
2019-01-31T10:42:50.410Z,3.40
2019-01-31T10:45:40.126Z,3.70
2019-01-31T10:48:51.569Z,3.60
2019-01-31T10:52:06.218Z,3.60
2019-01-31T10:55:21.359Z,3.60
2019-01-31T10:58:25.824Z,3.20
2019-01-31T11:01:23.687Z,3.80
2019-01-31T11:04:38.014Z,4.30
2019-01-31T11:07:34.251Z,4.00
2019-01-31T11:10:58.418Z,3.40
2019-01-31T11:13:53.929Z,3.60
2019-01-31T11:16:42.943Z,4.00
2019-01-31T11:19:52.035Z,3.80
2019-01-31T11:23:14.455Z,3.60
2019-01-31T11:26:34.113Z,4.00
2019-01-31T11:29:48.546Z,4.40
2019-01-31T11:32:44.864Z,4.70
2019-01-31T11:35:27.028Z,5.00
2019-01-31T11:38:20.665Z,4.50
2019-01-31T11:41:36.975Z,4.30
2019-01-31T11:44:45.394Z,4.00
2019-01-31T11:47:39.285Z,4.30
2019-01-31T11:50:38.179Z,4.50
2019-01-31T11:53:35.511Z,4.50
2019-01-31T11:56:43.111Z,4.50
2019-01-31T11:59:12.643Z,4.60
2019-01-31T12:01:42.266Z,5.20
2019-01-31T12:04:26.268Z,5.60
2019-01-31T12:06:55.740Z,5.30
2019-01-31T12:09:25.286Z,5.50
2019-01-31T12:11:54.765Z,5.10
2019-01-31T12:14:24.350Z,4.70
2019-01-31T12:16:53.809Z,4.60
2019-01-31T12:19:23.315Z,4.80
2019-01-31T12:21:52.840Z,5.10
2019-01-31T12:24:22.288Z,5.00
2019-01-31T12:26:52.080Z,4.90
2019-01-31T12:29:21.630Z,4.60
2019-01-31T12:31:51.630Z,4.10
2019-01-31T12:34:21.549Z,4.00
2019-01-31T12:36:51.118Z,3.40
2019-01-31T12:39:20.622Z,3.30
2019-01-31T12:41:50.511Z,3.10
2019-01-31T12:44:20.087Z,3.30
2019-01-31T12:46:49.838Z,3.50
2019-01-31T12:49:19.364Z,3.80
2019-01-31T12:51:49.208Z,3.80
2019-01-31T12:54:18.848Z,3.50
2019-01-31T12:56:48.453Z,3.30
2019-01-31T12:59:17.903Z,3.30
2019-01-31T13:01:47.396Z,3.00
2019-01-31T13:04:17.192Z,3.20
2019-01-31T13:06:46.708Z,3.20
2019-01-31T13:09:16.619Z,3.50
2019-01-31T13:11:46.264Z,3.60
2019-01-31T13:17:57.289Z,3.70
2019-01-31T13:20:26.997Z,4.10
2019-01-31T13:22:57.998Z,4.30
2019-01-31T13:25:28.990Z,4.30
2019-01-31T13:27:58.683Z,4.20
2019-01-31T13:30:28.275Z,4.20
2019-01-31T13:32:58.373Z,4.00
2019-01-31T13:35:27.960Z,3.90
2019-01-31T13:37:57.471Z,3.70
2019-01-31T13:40:27.693Z,3.90
2019-01-31T13:42:57.666Z,4.10
2019-01-31T13:45:35.473Z,4.00
2019-01-31T13:48:11.377Z,4.00
2019-01-31T13:50:43.740Z,4.30
2019-01-31T13:53:13.636Z,4.10
2019-01-31T13:55:43.209Z,3.70
2019-01-31T13:58:12.863Z,3.30
2019-01-31T14:00:42.385Z,3.10
2019-01-31T14:03:12.077Z,2.70
2019-01-31T14:05:41.668Z,2.50
2019-01-31T14:08:11.254Z,2.40
2019-01-31T14:10:40.745Z,2.10
2019-01-31T14:13:11.525Z,2.10
2019-01-31T14:15:41.280Z,2.10
2019-01-31T14:18:10.900Z,2.00
2019-01-31T14:20:40.433Z,1.90
2019-01-31T14:23:10.066Z,1.80
2019-01-31T14:25:39.532Z,1.80
2019-01-31T14:28:09.040Z,1.90
2019-01-31T14:30:39.747Z,1.80
2019-01-31T14:33:17.827Z,1.90
2019-01-31T14:35:47.472Z,2.10
2019-01-31T14:38:16.959Z,2.40
2019-01-31T14:40:46.518Z,2.60
2019-01-31T14:43:16.008Z,2.60
2019-01-31T14:45:45.577Z,2.50
2019-01-31T14:48:15.115Z,2.40
2019-01-31T14:50:44.760Z,2.40
2019-01-31T14:53:14.511Z,2.20
2019-01-31T14:55:44.205Z,2.20
2019-01-31T14:58:13.998Z,2.00
2019-01-31T15:00:49.988Z,2.00
2019-01-31T15:03:19.694Z,1.90
2019-01-31T15:05:49.484Z,2.00
2019-01-31T15:08:19.016Z,2.20
2019-01-31T15:11:06.415Z,2.30
2019-01-31T15:13:35.991Z,2.10
2019-01-31T15:16:06.248Z,1.90
2019-01-31T15:18:36.197Z,1.70
2019-01-31T15:21:05.790Z,1.40
2019-01-31T15:23:35.469Z,1.20
2019-01-31T15:26:05.238Z,0.90
2019-01-31T15:28:34.924Z,0.70
2019-01-31T15:31:04.548Z,0.50
2019-01-31T15:33:34.309Z,0.50
2019-01-31T15:36:06.503Z,0.40
2019-01-31T15:38:36.184Z,0.30
2019-01-31T15:41:06.048Z,0.30
2019-01-31T15:43:35.881Z,0.30
2019-01-31T15:46:05.651Z,0.20
2019-01-31T15:48:35.213Z,0.10
2019-01-31T15:51:04.858Z,0.10
2019-01-31T15:53:34.829Z,0.00
2019-01-31T15:56:05.043Z,0.00
2019-01-31T15:58:34.739Z,-0.10
2019-01-31T16:01:05.718Z,-0.20
2019-01-31T16:03:35.494Z,-0.20
2019-01-31T16:06:07.154Z,-0.30
2019-01-31T16:08:36.383Z,-0.20
2019-01-31T16:11:06.048Z,-0.20
2019-01-31T16:13:35.613Z,-0.20
2019-01-31T16:16:05.689Z,-0.20
2019-01-31T16:18:35.301Z,-0.30
2019-01-31T16:21:06.095Z,-0.40
2019-01-31T16:23:35.676Z,-0.50
2019-01-31T16:26:05.865Z,-0.40
2019-01-31T16:28:35.478Z,-0.30
2019-01-31T16:31:04.871Z,-0.30
2019-01-31T16:33:34.207Z,-0.40
2019-01-31T16:36:03.784Z,-0.40
2019-01-31T16:38:33.161Z,-0.30
2019-01-31T16:41:02.743Z,-0.30
2019-01-31T16:43:32.287Z,-0.40
2019-01-31T16:46:02.054Z,-0.60
2019-01-31T16:48:31.542Z,-0.90
2019-01-31T16:51:00.957Z,-1.00
2019-01-31T16:53:30.370Z,-1.10
2019-01-31T16:55:59.875Z,-1.10
2019-01-31T16:58:29.464Z,-1.30
2019-01-31T17:00:58.932Z,-1.40
2019-01-31T17:03:28.593Z,-1.60
2019-01-31T17:05:58.101Z,-1.60
2019-01-31T17:08:27.449Z,-1.60
2019-01-31T17:10:56.958Z,-1.60
2019-01-31T17:13:28.476Z,-1.60
2019-01-31T17:15:57.723Z,-1.50
2019-01-31T17:18:27.152Z,-1.50
2019-01-31T17:20:56.596Z,-1.70
2019-01-31T17:23:26.037Z,-1.90
2019-01-31T17:26:13.364Z,-1.90
2019-01-31T17:28:42.871Z,-1.90
2019-01-31T17:31:12.407Z,-2.00
2019-01-31T17:33:41.793Z,-2.10
2019-01-31T17:36:11.223Z,-2.00
2019-01-31T17:38:40.572Z,-2.00
2019-01-31T17:41:10.777Z,-1.90
2019-01-31T17:43:40.159Z,-1.80
2019-01-31T17:46:11.218Z,-1.60
2019-01-31T17:48:40.721Z,-1.40
2019-01-31T17:51:12.154Z,-1.30
2019-01-31T17:53:41.913Z,-1.10
2019-01-31T17:56:11.767Z,-1.10
2019-01-31T17:59:17.358Z,-1.00
2019-01-31T18:01:47.154Z,-0.90
2019-01-31T18:04:16.775Z,-0.80
2019-01-31T18:06:46.604Z,-0.90
2019-01-31T18:12:57.960Z,-0.80
2019-01-31T18:15:27.766Z,-0.70
2019-01-31T18:17:57.931Z,-0.60
2019-01-31T18:20:28.447Z,-0.50
2019-01-31T18:22:58.069Z,-0.40
2019-01-31T18:25:27.967Z,-0.30
2019-01-31T18:27:57.679Z,-0.30
2019-01-31T18:30:28.674Z,-0.30
2019-01-31T18:32:58.571Z,-0.40
2019-01-31T18:35:28.633Z,-0.40
2019-01-31T18:37:58.488Z,-0.40
2019-01-31T18:40:30.215Z,-0.50
2019-01-31T18:43:00.006Z,-0.40
2019-01-31T18:45:31.131Z,-0.40
2019-01-31T18:48:01.528Z,-0.30
2019-01-31T18:50:33.352Z,-0.30
2019-01-31T18:53:03.465Z,-0.30
2019-01-31T18:55:33.289Z,-0.30
2019-01-31T18:58:04.272Z,-0.30
2019-01-31T19:00:42.634Z,-0.30
2019-01-31T19:03:12.940Z,-0.30
2019-01-31T19:05:43.036Z,-0.20
2019-01-31T19:08:13.900Z,-0.10
2019-01-31T19:10:44.162Z,-0.20
2019-01-31T19:13:14.725Z,-0.20
2019-01-31T19:15:46.516Z,-0.10
2019-01-31T19:18:16.850Z,0.00
2019-01-31T19:20:46.913Z,0.10
2019-01-31T19:23:16.955Z,0.20
2019-01-31T19:25:47.325Z,0.20
2019-01-31T19:28:17.567Z,0.30
2019-01-31T19:30:47.582Z,0.30
2019-01-31T19:33:17.487Z,0.30
2019-01-31T19:35:47.604Z,0.30
2019-01-31T19:38:20.577Z,0.40
2019-01-31T19:40:50.436Z,0.40
2019-01-31T19:43:20.491Z,0.40
2019-01-31T19:45:53.162Z,0.50
2019-01-31T19:48:23.140Z,0.50
2019-01-31T19:51:10.815Z,0.60
2019-01-31T19:53:40.698Z,0.70
2019-01-31T19:56:10.629Z,0.80
2019-01-31T19:58:40.615Z,0.80
2019-01-31T20:01:11.043Z,0.90
2019-01-31T20:03:40.702Z,1.00
2019-01-31T20:06:10.351Z,1.10
2019-01-31T20:08:39.914Z,1.10
2019-01-31T20:11:09.608Z,1.20
2019-01-31T20:13:39.492Z,1.20
2019-01-31T20:16:09.216Z,1.10
2019-01-31T20:18:39.001Z,1.10
2019-01-31T20:21:08.571Z,1.10
2019-01-31T20:23:38.355Z,1.10
2019-01-31T20:26:08.083Z,1.10
2019-01-31T20:28:37.795Z,1.00
2019-01-31T20:31:07.597Z,1.00
2019-01-31T20:33:37.292Z,1.00
2019-01-31T20:36:07.174Z,0.90
2019-01-31T20:38:54.692Z,1.00
2019-01-31T20:41:27.288Z,1.00
2019-01-31T20:43:56.062Z,1.00
2019-01-31T20:46:26.038Z,1.10
2019-01-31T20:48:55.791Z,1.30
2019-01-31T20:51:25.541Z,1.30
2019-01-31T20:53:55.413Z,1.30
2019-01-31T20:56:24.970Z,1.40
2019-01-31T20:58:54.875Z,1.40
2019-01-31T21:01:24.510Z,1.40
2019-01-31T21:03:54.275Z,1.40
2019-01-31T21:06:24.055Z,1.40
2019-01-31T21:08:53.810Z,1.40
2019-01-31T21:11:23.399Z,1.50
2019-01-31T21:13:53.185Z,1.50
2019-01-31T21:16:23.111Z,1.40
2019-01-31T21:18:52.883Z,1.40
2019-01-31T21:21:23.142Z,1.50
2019-01-31T21:23:53.212Z,1.50
2019-01-31T21:26:40.981Z,1.40
2019-01-31T21:29:10.594Z,1.50
2019-01-31T21:31:40.289Z,1.50
2019-01-31T21:34:09.968Z,1.50
2019-01-31T21:36:39.666Z,1.50
2019-01-31T21:39:12.429Z,1.50
2019-01-31T21:41:42.043Z,1.60
2019-01-31T21:44:11.625Z,1.70
2019-01-31T21:46:41.420Z,1.70
2019-01-31T21:49:11.104Z,1.70
2019-01-31T21:51:40.857Z,1.70
2019-01-31T21:54:10.720Z,1.70
2019-01-31T21:56:40.346Z,1.70
2019-01-31T21:59:10.106Z,1.70
2019-01-31T22:01:39.809Z,1.70
2019-01-31T22:04:09.354Z,1.70
2019-01-31T22:06:38.991Z,1.70
2019-01-31T22:09:10.132Z,1.60
2019-01-31T22:11:39.731Z,1.50
2019-01-31T22:14:09.322Z,1.50
2019-01-31T22:16:38.943Z,1.50
2019-01-31T22:19:08.587Z,1.50
2019-01-31T22:21:38.239Z,1.50
2019-01-31T22:24:07.776Z,1.40
2019-01-31T22:26:37.729Z,1.50
2019-01-31T22:29:08.397Z,1.50
2019-01-31T22:31:38.176Z,1.50
2019-01-31T22:34:07.766Z,1.40
2019-01-31T22:36:37.467Z,1.40
2019-01-31T22:39:08.894Z,1.40
2019-01-31T22:41:38.448Z,1.40
2019-01-31T22:44:08.168Z,1.40
2019-01-31T22:46:37.711Z,1.40
2019-01-31T22:49:07.204Z,1.50
2019-01-31T22:51:37.554Z,1.40
2019-01-31T22:54:07.288Z,1.50
2019-01-31T22:56:36.944Z,1.50
2019-01-31T22:59:06.717Z,1.50
2019-01-31T23:01:53.379Z,1.50
2019-01-31T23:04:23.636Z,1.50
2019-01-31T23:06:53.156Z,1.50
2019-01-31T23:09:22.827Z,1.50
2019-01-31T23:11:52.462Z,1.60
2019-01-31T23:14:22.178Z,1.50
2019-01-31T23:16:51.711Z,1.50
2019-01-31T23:19:21.249Z,1.60
2019-01-31T23:21:50.849Z,1.50
2019-01-31T23:24:20.437Z,1.60
2019-01-31T23:26:50.427Z,1.60
2019-01-31T23:29:20.167Z,1.60
2019-01-31T23:31:49.742Z,1.70
2019-01-31T23:34:19.275Z,1.80
2019-01-31T23:36:48.977Z,1.80
2019-01-31T23:39:18.542Z,1.80
2019-01-31T23:41:48.102Z,1.80
2019-01-31T23:44:17.647Z,1.90
2019-01-31T23:46:47.206Z,1.80
2019-01-31T23:49:16.762Z,1.90
2019-01-31T23:51:46.388Z,2.00
2019-01-31T23:54:16.033Z,2.10
2019-01-31T23:56:45.687Z,2.10
2019-01-31T23:59:15.252Z,2.20
